sensor_id;sensor_type;location;lat;lon;timestamp;pressure;altitude;pressure_sealevel;temperature;humidity
15308;BME280;7755;52.208;6.964;2023-09-12T00:01:31;100940.38;;;21.30;100.00
15308;BME280;7755;52.208;6.964;2023-09-12T00:05:35;100908.88;;;21.26;100.00
15308;BME280;7755;52.208;6.964;2023-09-12T00:09:38;100932.94;;;21.25;100.00
15308;BME280;7755;52.208;6.964;2023-09-12T00:13:41;100915.03;;;21.23;100.00
15308;BME280;7755;52.208;6.964;2023-09-12T00:17:44;100909.63;;;21.32;100.00
15308;BME280;7755;52.208;6.964;2023-09-12T00:21:48;100940.56;;;21.34;100.00
15308;BME280;7755;52.208;6.964;2023-09-12T00:25:51;100951.19;;;21.26;100.00
15308;BME280;7755;52.208;6.964;2023-09-12T00:29:54;100936.97;;;21.33;100.00
15308;BME280;7755;52.208;6.964;2023-09-12T00:33:56;100914.56;;;21.35;100.00
15308;BME280;7755;52.208;6.964;2023-09-12T00:38:02;100897.53;;;21.27;100.00
15308;BME280;7755;52.208;6.964;2023-09-12T00:42:05;100864.44;;;21.22;100.00
15308;BME280;7755;52.208;6.964;2023-09-12T00:46:09;100866.91;;;21.24;100.00
15308;BME280;7755;52.208;6.964;2023-09-12T00:50:12;100877.06;;;21.29;100.00
15308;BME280;7755;52.208;6.964;2023-09-12T00:54:17;100900.84;;;21.30;100.00
15308;BME280;7755;52.208;6.964;2023-09-12T00:58:20;100918.94;;;21.22;100.00
15308;BME280;7755;52.208;6.964;2023-09-12T01:02:24;100927.53;;;21.20;100.00
15308;BME280;7755;52.208;6.964;2023-09-12T01:06:29;100892.00;;;21.14;100.00
15308;BME280;7755;52.208;6.964;2023-09-12T01:10:33;100898.03;;;21.02;100.00
15308;BME280;7755;52.208;6.964;2023-09-12T01:14:36;100938.53;;;20.93;100.00
15308;BME280;7755;52.208;6.964;2023-09-12T01:18:39;100948.75;;;20.79;100.00
15308;BME280;7755;52.208;6.964;2023-09-12T01:22:56;100930.34;;;20.74;100.00
15308;BME280;7755;52.208;6.964;2023-09-12T01:27:17;100896.00;;;20.61;100.00
15308;BME280;7755;52.208;6.964;2023-09-12T01:31:22;100875.31;;;20.59;100.00
15308;BME280;7755;52.208;6.964;2023-09-12T01:35:25;100864.28;;;20.59;100.00
15308;BME280;7755;52.208;6.964;2023-09-12T01:39:28;100847.66;;;20.45;100.00
15308;BME280;7755;52.208;6.964;2023-09-12T01:43:32;100854.56;;;20.29;100.00
15308;BME280;7755;52.208;6.964;2023-09-12T01:47:39;100861.41;;;20.31;100.00
15308;BME280;7755;52.208;6.964;2023-09-12T01:51:42;100843.94;;;20.36;100.00
15308;BME280;7755;52.208;6.964;2023-09-12T01:55:46;100839.31;;;20.31;100.00
15308;BME280;7755;52.208;6.964;2023-09-12T01:59:51;100843.81;;;20.27;100.00
15308;BME280;7755;52.208;6.964;2023-09-12T02:03:54;100837.59;;;20.35;100.00
15308;BME280;7755;52.208;6.964;2023-09-12T02:07:57;100831.75;;;20.37;100.00
15308;BME280;7755;52.208;6.964;2023-09-12T02:12:02;100811.63;;;20.36;100.00
15308;BME280;7755;52.208;6.964;2023-09-12T02:16:06;100816.00;;;20.37;100.00
15308;BME280;7755;52.208;6.964;2023-09-12T02:20:10;100815.41;;;20.40;100.00
15308;BME280;7755;52.208;6.964;2023-09-12T02:24:13;100805.19;;;20.41;100.00
15308;BME280;7755;52.208;6.964;2023-09-12T02:28:16;100812.34;;;20.42;100.00
15308;BME280;7755;52.208;6.964;2023-09-12T02:32:20;100830.13;;;20.36;100.00
15308;BME280;7755;52.208;6.964;2023-09-12T02:36:23;100820.53;;;20.33;100.00
15308;BME280;7755;52.208;6.964;2023-09-12T02:40:26;100804.22;;;20.32;100.00
15308;BME280;7755;52.208;6.964;2023-09-12T02:44:29;100828.25;;;20.31;100.00
15308;BME280;7755;52.208;6.964;2023-09-12T02:48:33;100837.75;;;20.25;100.00
15308;BME280;7755;52.208;6.964;2023-09-12T02:52:36;100833.97;;;20.21;100.00
15308;BME280;7755;52.208;6.964;2023-09-12T02:56:38;100814.97;;;20.20;100.00
15308;BME280;7755;52.208;6.964;2023-09-12T03:00:41;100807.06;;;20.13;100.00
15308;BME280;7755;52.208;6.964;2023-09-12T03:04:46;100796.91;;;20.08;100.00
15308;BME280;7755;52.208;6.964;2023-09-12T03:08:48;100790.16;;;20.01;100.00
15308;BME280;7755;52.208;6.964;2023-09-12T03:12:52;100799.31;;;19.96;100.00
15308;BME280;7755;52.208;6.964;2023-09-12T03:16:55;100806.28;;;19.94;100.00
15308;BME280;7755;52.208;6.964;2023-09-12T03:21:00;100808.13;;;19.98;100.00
15308;BME280;7755;52.208;6.964;2023-09-12T03:25:05;100805.22;;;19.89;100.00
15308;BME280;7755;52.208;6.964;2023-09-12T03:29:08;100813.50;;;19.89;100.00
15308;BME280;7755;52.208;6.964;2023-09-12T03:33:10;100812.09;;;19.92;100.00
15308;BME280;7755;52.208;6.964;2023-09-12T03:37:15;100810.97;;;19.93;100.00
15308;BME280;7755;52.208;6.964;2023-09-12T03:41:18;100804.34;;;19.94;100.00
15308;BME280;7755;52.208;6.964;2023-09-12T03:45:21;100822.09;;;19.88;100.00
15308;BME280;7755;52.208;6.964;2023-09-12T03:49:24;100819.94;;;19.85;100.00
15308;BME280;7755;52.208;6.964;2023-09-12T03:53:28;100815.53;;;19.84;100.00
15308;BME280;7755;52.208;6.964;2023-09-12T03:57:31;100810.00;;;19.84;100.00
15308;BME280;7755;52.208;6.964;2023-09-12T04:01:34;100798.53;;;19.77;100.00
15308;BME280;7755;52.208;6.964;2023-09-12T04:05:37;100800.84;;;19.70;100.00
15308;BME280;7755;52.208;6.964;2023-09-12T04:09:41;100795.63;;;19.68;100.00
15308;BME280;7755;52.208;6.964;2023-09-12T04:13:44;100790.41;;;19.67;100.00
15308;BME280;7755;52.208;6.964;2023-09-12T04:17:46;100794.56;;;19.64;100.00
15308;BME280;7755;52.208;6.964;2023-09-12T04:21:49;100791.63;;;19.60;100.00
15308;BME280;7755;52.208;6.964;2023-09-12T04:25:53;100795.81;;;19.58;100.00
15308;BME280;7755;52.208;6.964;2023-09-12T04:29:56;100796.88;;;19.57;100.00
15308;BME280;7755;52.208;6.964;2023-09-12T04:33:59;100799.09;;;19.55;100.00
15308;BME280;7755;52.208;6.964;2023-09-12T04:38:02;100795.84;;;19.53;100.00
15308;BME280;7755;52.208;6.964;2023-09-12T04:42:07;100790.91;;;19.50;100.00
15308;BME280;7755;52.208;6.964;2023-09-12T04:46:10;100792.34;;;19.47;100.00
15308;BME280;7755;52.208;6.964;2023-09-12T04:50:13;100799.53;;;19.43;100.00
15308;BME280;7755;52.208;6.964;2023-09-12T04:54:16;100805.59;;;19.45;100.00
15308;BME280;7755;52.208;6.964;2023-09-12T04:58:20;100806.13;;;19.47;100.00
15308;BME280;7755;52.208;6.964;2023-09-12T05:02:23;100805.31;;;19.47;100.00
15308;BME280;7755;52.208;6.964;2023-09-12T05:06:26;100802.84;;;19.45;100.00
15308;BME280;7755;52.208;6.964;2023-09-12T05:10:29;100812.25;;;19.44;100.00
15308;BME280;7755;52.208;6.964;2023-09-12T05:14:33;100835.41;;;19.43;100.00
15308;BME280;7755;52.208;6.964;2023-09-12T05:18:36;100834.06;;;19.41;100.00
15308;BME280;7755;52.208;6.964;2023-09-12T05:22:38;100844.56;;;19.39;100.00
15308;BME280;7755;52.208;6.964;2023-09-12T05:26:42;100853.13;;;19.37;100.00
15308;BME280;7755;52.208;6.964;2023-09-12T05:30:46;100846.50;;;19.38;100.00
15308;BME280;7755;52.208;6.964;2023-09-12T05:34:49;100850.97;;;19.34;100.00
15308;BME280;7755;52.208;6.964;2023-09-12T05:39:04;100857.91;;;19.31;100.00
15308;BME280;7755;52.208;6.964;2023-09-12T05:43:06;100867.66;;;19.24;100.00
15308;BME280;7755;52.208;6.964;2023-09-12T05:47:11;100874.25;;;19.23;100.00
15308;BME280;7755;52.208;6.964;2023-09-12T05:51:14;100877.56;;;19.25;100.00
15308;BME280;7755;52.208;6.964;2023-09-12T05:55:16;100879.41;;;19.29;100.00
15308;BME280;7755;52.208;6.964;2023-09-12T05:59:20;100879.41;;;19.29;100.00
15308;BME280;7755;52.208;6.964;2023-09-12T06:03:24;100875.47;;;19.35;100.00
15308;BME280;7755;52.208;6.964;2023-09-12T06:07:27;100872.66;;;19.41;100.00
15308;BME280;7755;52.208;6.964;2023-09-12T06:11:30;100862.25;;;19.38;100.00
15308;BME280;7755;52.208;6.964;2023-09-12T06:15:33;100868.78;;;19.42;100.00
15308;BME280;7755;52.208;6.964;2023-09-12T06:19:37;100866.53;;;19.44;100.00
15308;BME280;7755;52.208;6.964;2023-09-12T06:23:41;100870.06;;;19.49;100.00
15308;BME280;7755;52.208;6.964;2023-09-12T06:27:43;100867.53;;;19.58;100.00
15308;BME280;7755;52.208;6.964;2023-09-12T06:31:47;100872.38;;;19.66;100.00
15308;BME280;7755;52.208;6.964;2023-09-12T06:35:51;100873.56;;;19.60;100.00
15308;BME280;7755;52.208;6.964;2023-09-12T06:39:55;100885.03;;;19.67;100.00
15308;BME280;7755;52.208;6.964;2023-09-12T06:43:58;100891.88;;;19.70;100.00
15308;BME280;7755;52.208;6.964;2023-09-12T06:48:00;100900.72;;;19.72;100.00
15308;BME280;7755;52.208;6.964;2023-09-12T06:52:05;100908.69;;;19.73;100.00
15308;BME280;7755;52.208;6.964;2023-09-12T06:56:08;100926.16;;;19.63;100.00
15308;BME280;7755;52.208;6.964;2023-09-12T07:00:12;100933.88;;;19.67;100.00
15308;BME280;7755;52.208;6.964;2023-09-12T07:04:15;100942.97;;;19.67;100.00
15308;BME280;7755;52.208;6.964;2023-09-12T07:08:20;100941.38;;;19.61;100.00
15308;BME280;7755;52.208;6.964;2023-09-12T07:12:22;100946.38;;;19.59;100.00
15308;BME280;7755;52.208;6.964;2023-09-12T07:16:25;100938.03;;;19.64;100.00
15308;BME280;7755;52.208;6.964;2023-09-12T07:20:28;100934.69;;;19.67;100.00
15308;BME280;7755;52.208;6.964;2023-09-12T07:24:32;100939.13;;;19.63;100.00
15308;BME280;7755;52.208;6.964;2023-09-12T07:28:35;100944.97;;;19.61;100.00
15308;BME280;7755;52.208;6.964;2023-09-12T07:32:38;100951.28;;;19.62;100.00
15308;BME280;7755;52.208;6.964;2023-09-12T07:36:41;100944.66;;;19.63;100.00
15308;BME280;7755;52.208;6.964;2023-09-12T07:40:45;100933.88;;;19.67;100.00
15308;BME280;7755;52.208;6.964;2023-09-12T07:44:48;100933.72;;;19.77;100.00
15308;BME280;7755;52.208;6.964;2023-09-12T07:48:51;100923.22;;;19.79;100.00
15308;BME280;7755;52.208;6.964;2023-09-12T07:52:54;100918.69;;;19.88;100.00
15308;BME280;7755;52.208;6.964;2023-09-12T07:56:59;100919.63;;;19.97;100.00
15308;BME280;7755;52.208;6.964;2023-09-12T08:01:05;100918.75;;;20.02;100.00
15308;BME280;7755;52.208;6.964;2023-09-12T08:05:08;100912.84;;;20.08;100.00
15308;BME280;7755;52.208;6.964;2023-09-12T08:09:11;100911.44;;;20.11;100.00
15308;BME280;7755;52.208;6.964;2023-09-12T08:13:15;100899.19;;;20.17;100.00
15308;BME280;7755;52.208;6.964;2023-09-12T08:17:18;100894.72;;;20.21;100.00
15308;BME280;7755;52.208;6.964;2023-09-12T08:21:21;100888.59;;;20.24;100.00
15308;BME280;7755;52.208;6.964;2023-09-12T08:25:23;100894.66;;;20.26;100.00
15308;BME280;7755;52.208;6.964;2023-09-12T08:29:29;100889.63;;;20.28;100.00
15308;BME280;7755;52.208;6.964;2023-09-12T08:33:32;100891.28;;;20.29;100.00
15308;BME280;7755;52.208;6.964;2023-09-12T08:37:35;100893.53;;;20.27;100.00
15308;BME280;7755;52.208;6.964;2023-09-12T08:41:38;100893.59;;;20.22;100.00
15308;BME280;7755;52.208;6.964;2023-09-12T08:45:42;100910.16;;;20.22;100.00
15308;BME280;7755;52.208;6.964;2023-09-12T08:49:46;100917.94;;;20.20;100.00
15308;BME280;7755;52.208;6.964;2023-09-12T08:53:49;100925.84;;;20.27;100.00
15308;BME280;7755;52.208;6.964;2023-09-12T08:57:53;100923.91;;;20.46;100.00
15308;BME280;7755;52.208;6.964;2023-09-12T09:01:59;100924.38;;;20.67;100.00
15308;BME280;7755;52.208;6.964;2023-09-12T09:06:04;100917.56;;;20.92;100.00
15308;BME280;7755;52.208;6.964;2023-09-12T09:10:14;100923.25;;;21.14;100.00
15308;BME280;7755;52.208;6.964;2023-09-12T09:14:19;100928.88;;;21.23;100.00
15308;BME280;7755;52.208;6.964;2023-09-12T09:18:23;100937.91;;;21.29;100.00
15308;BME280;7755;52.208;6.964;2023-09-12T09:22:26;100943.88;;;21.36;100.00
15308;BME280;7755;52.208;6.964;2023-09-12T09:26:41;100949.19;;;21.46;100.00
15308;BME280;7755;52.208;6.964;2023-09-12T09:30:47;100953.78;;;21.50;100.00
15308;BME280;7755;52.208;6.964;2023-09-12T09:34:52;100949.41;;;21.49;100.00
15308;BME280;7755;52.208;6.964;2023-09-12T09:38:56;100946.72;;;21.58;100.00
15308;BME280;7755;52.208;6.964;2023-09-12T09:43:01;100943.22;;;21.66;100.00
15308;BME280;7755;52.208;6.964;2023-09-12T09:47:04;100940.44;;;21.80;100.00
15308;BME280;7755;52.208;6.964;2023-09-12T09:51:13;100945.94;;;21.94;100.00
15308;BME280;7755;52.208;6.964;2023-09-12T09:55:16;100961.94;;;21.97;100.00
15308;BME280;7755;52.208;6.964;2023-09-12T09:59:24;100966.03;;;22.13;100.00
15308;BME280;7755;52.208;6.964;2023-09-12T10:03:27;100963.69;;;22.43;100.00
15308;BME280;7755;52.208;6.964;2023-09-12T10:07:33;100957.22;;;22.92;100.00
15308;BME280;7755;52.208;6.964;2023-09-12T10:11:37;100961.66;;;23.33;100.00
15308;BME280;7755;52.208;6.964;2023-09-12T10:15:43;100958.38;;;23.70;100.00
15308;BME280;7755;52.208;6.964;2023-09-12T10:19:51;100956.34;;;24.19;100.00
15308;BME280;7755;52.208;6.964;2023-09-12T10:23:59;100945.22;;;24.63;100.00
15308;BME280;7755;52.208;6.964;2023-09-12T10:28:03;100951.56;;;25.07;100.00
15308;BME280;7755;52.208;6.964;2023-09-12T10:32:08;100953.16;;;25.46;96.50
15308;BME280;7755;52.208;6.964;2023-09-12T10:36:11;100971.56;;;25.76;94.47
15308;BME280;7755;52.208;6.964;2023-09-12T10:40:16;100981.56;;;25.77;92.57
15308;BME280;7755;52.208;6.964;2023-09-12T10:44:25;100991.47;;;25.87;91.18
15308;BME280;7755;52.208;6.964;2023-09-12T10:48:28;100981.41;;;25.65;87.54
15308;BME280;7755;52.208;6.964;2023-09-12T10:52:31;100984.91;;;25.53;88.04
15308;BME280;7755;52.208;6.964;2023-09-12T10:56:38;100978.50;;;25.62;89.20
15308;BME280;7755;52.208;6.964;2023-09-12T11:00:41;100968.94;;;25.71;87.29
15308;BME280;7755;52.208;6.964;2023-09-12T11:04:45;100969.13;;;25.75;85.77
15308;BME280;7755;52.208;6.964;2023-09-12T11:09:18;100965.66;;;25.40;87.85
15308;BME280;7755;52.208;6.964;2023-09-12T11:13:37;100964.75;;;25.27;88.70
15308;BME280;7755;52.208;6.964;2023-09-12T11:17:43;100959.25;;;25.48;86.67
15308;BME280;7755;52.208;6.964;2023-09-12T11:21:47;100961.41;;;26.01;83.67
15308;BME280;7755;52.208;6.964;2023-09-12T11:26:02;100965.97;;;26.06;79.72
15308;BME280;7755;52.208;6.964;2023-09-12T11:30:10;100961.06;;;26.03;80.53
15308;BME280;7755;52.208;6.964;2023-09-12T11:34:14;100957.88;;;26.34;76.25
15308;BME280;7755;52.208;6.964;2023-09-12T11:38:26;100959.91;;;26.66;76.42
15308;BME280;7755;52.208;6.964;2023-09-12T11:42:29;100950.69;;;26.99;73.94
15308;BME280;7755;52.208;6.964;2023-09-12T11:46:34;100949.06;;;26.98;73.34
15308;BME280;7755;52.208;6.964;2023-09-12T11:50:37;100942.31;;;26.99;73.40
15308;BME280;7755;52.208;6.964;2023-09-12T11:54:43;100941.34;;;27.28;72.71
15308;BME280;7755;52.208;6.964;2023-09-12T11:58:47;100949.16;;;27.47;70.76
15308;BME280;7755;52.208;6.964;2023-09-12T12:02:51;100936.69;;;27.81;69.36
15308;BME280;7755;52.208;6.964;2023-09-12T12:06:53;100931.50;;;28.20;66.04
15308;BME280;7755;52.208;6.964;2023-09-12T12:10:56;100923.03;;;28.44;65.80
15308;BME280;7755;52.208;6.964;2023-09-12T12:15:01;100909.72;;;28.53;63.85
15308;BME280;7755;52.208;6.964;2023-09-12T12:19:05;100912.16;;;28.55;62.62
15308;BME280;7755;52.208;6.964;2023-09-12T12:23:07;100907.22;;;28.36;63.18
15308;BME280;7755;52.208;6.964;2023-09-12T12:27:10;100895.66;;;28.38;62.03
15308;BME280;7755;52.208;6.964;2023-09-12T12:31:14;100891.97;;;28.34;61.99
15308;BME280;7755;52.208;6.964;2023-09-12T12:35:19;100886.75;;;28.32;61.54
15308;BME280;7755;52.208;6.964;2023-09-12T12:39:42;100887.03;;;28.59;62.27
15308;BME280;7755;52.208;6.964;2023-09-12T12:43:49;100876.59;;;28.71;61.41
15308;BME280;7755;52.208;6.964;2023-09-12T12:47:58;100879.31;;;28.83;61.84
15308;BME280;7755;52.208;6.964;2023-09-12T12:52:03;100873.91;;;28.91;59.35
15308;BME280;7755;52.208;6.964;2023-09-12T12:56:06;100875.44;;;28.72;59.16
15308;BME280;7755;52.208;6.964;2023-09-12T13:00:10;100875.56;;;28.92;60.23
15308;BME280;7755;52.208;6.964;2023-09-12T13:04:14;100884.66;;;28.89;57.76
15308;BME280;7755;52.208;6.964;2023-09-12T13:08:21;100886.22;;;29.18;58.74
15308;BME280;7755;52.208;6.964;2023-09-12T13:12:23;100883.06;;;29.35;57.01
15308;BME280;7755;52.208;6.964;2023-09-12T13:16:27;100870.38;;;29.57;57.54
15308;BME280;7755;52.208;6.964;2023-09-12T13:20:30;100867.44;;;29.69;57.97
15308;BME280;7755;52.208;6.964;2023-09-12T13:24:34;100867.09;;;29.71;56.81
15308;BME280;7755;52.208;6.964;2023-09-12T13:28:37;100871.63;;;29.59;56.67
15308;BME280;7755;52.208;6.964;2023-09-12T13:32:40;100872.97;;;29.50;56.49
15308;BME280;7755;52.208;6.964;2023-09-12T13:36:43;100869.22;;;29.42;56.30
15308;BME280;7755;52.208;6.964;2023-09-12T13:40:53;100868.06;;;29.12;56.58
15308;BME280;7755;52.208;6.964;2023-09-12T13:44:56;100869.97;;;28.92;57.33
15308;BME280;7755;52.208;6.964;2023-09-12T13:49:00;100867.75;;;28.85;58.18
15308;BME280;7755;52.208;6.964;2023-09-12T13:53:05;100865.31;;;28.83;57.75
15308;BME280;7755;52.208;6.964;2023-09-12T13:57:16;100853.06;;;28.72;58.17
15308;BME280;7755;52.208;6.964;2023-09-12T14:01:20;100849.53;;;28.75;57.91
15308;BME280;7755;52.208;6.964;2023-09-12T14:05:35;100841.63;;;28.93;57.43
15308;BME280;7755;52.208;6.964;2023-09-12T14:09:39;100852.00;;;28.93;57.42
15308;BME280;7755;52.208;6.964;2023-09-12T14:13:43;100838.53;;;28.67;58.50
15308;BME280;7755;52.208;6.964;2023-09-12T14:17:48;100828.41;;;28.78;59.34
15308;BME280;7755;52.208;6.964;2023-09-12T14:21:57;100841.13;;;28.75;58.21
15308;BME280;7755;52.208;6.964;2023-09-12T14:26:00;100834.16;;;28.85;57.91
15308;BME280;7755;52.208;6.964;2023-09-12T14:30:06;100835.00;;;28.70;59.15
15308;BME280;7755;52.208;6.964;2023-09-12T14:34:09;100827.31;;;28.67;58.11
15308;BME280;7755;52.208;6.964;2023-09-12T14:38:12;100828.53;;;28.38;58.51
15308;BME280;7755;52.208;6.964;2023-09-12T14:42:14;100839.50;;;28.02;59.87
15308;BME280;7755;52.208;6.964;2023-09-12T14:46:18;100834.69;;;27.87;59.95
15308;BME280;7755;52.208;6.964;2023-09-12T14:50:22;100834.47;;;27.80;61.18
15308;BME280;7755;52.208;6.964;2023-09-12T14:54:41;100816.56;;;27.69;61.18
15308;BME280;7755;52.208;6.964;2023-09-12T14:58:44;100811.34;;;27.43;62.01
15308;BME280;7755;52.208;6.964;2023-09-12T15:02:48;100810.25;;;27.32;63.18
15308;BME280;7755;52.208;6.964;2023-09-12T15:06:52;100810.91;;;27.29;63.35
15308;BME280;7755;52.208;6.964;2023-09-12T15:10:55;100808.94;;;27.29;64.17
15308;BME280;7755;52.208;6.964;2023-09-12T15:14:57;100793.00;;;27.30;65.41
15308;BME280;7755;52.208;6.964;2023-09-12T15:19:02;100799.66;;;27.25;65.49
15308;BME280;7755;52.208;6.964;2023-09-12T15:23:06;100795.25;;;27.12;65.12
15308;BME280;7755;52.208;6.964;2023-09-12T15:27:08;100791.38;;;27.04;67.27
15308;BME280;7755;52.208;6.964;2023-09-12T15:31:11;100791.06;;;27.06;68.43
15308;BME280;7755;52.208;6.964;2023-09-12T15:35:15;100789.78;;;27.03;67.84
15308;BME280;7755;52.208;6.964;2023-09-12T15:39:18;100782.44;;;26.99;66.32
15308;BME280;7755;52.208;6.964;2023-09-12T15:43:21;100779.78;;;26.90;67.69
15308;BME280;7755;52.208;6.964;2023-09-12T15:47:26;100786.16;;;26.90;69.14
15308;BME280;7755;52.208;6.964;2023-09-12T15:51:31;100778.47;;;26.87;68.21
15308;BME280;7755;52.208;6.964;2023-09-12T15:55:34;100781.03;;;26.80;68.87
15308;BME280;7755;52.208;6.964;2023-09-12T15:59:37;100783.97;;;26.84;70.17
15308;BME280;7755;52.208;6.964;2023-09-12T16:03:40;100780.81;;;26.85;69.26
15308;BME280;7755;52.208;6.964;2023-09-12T16:07:45;100779.88;;;26.81;68.15
15308;BME280;7755;52.208;6.964;2023-09-12T16:11:48;100774.06;;;26.74;69.96
15308;BME280;7755;52.208;6.964;2023-09-12T16:15:50;100774.03;;;26.62;70.25
15308;BME280;7755;52.208;6.964;2023-09-12T16:19:53;100785.88;;;26.47;70.60
15308;BME280;7755;52.208;6.964;2023-09-12T16:23:58;100779.19;;;26.27;70.18
15308;BME280;7755;52.208;6.964;2023-09-12T16:28:01;100776.72;;;26.13;71.48
15308;BME280;7755;52.208;6.964;2023-09-12T16:32:05;100769.59;;;26.03;71.82
15308;BME280;7755;52.208;6.964;2023-09-12T16:36:08;100761.09;;;26.00;72.51
15308;BME280;7755;52.208;6.964;2023-09-12T16:40:12;100763.78;;;25.96;72.57
15308;BME280;7755;52.208;6.964;2023-09-12T16:44:15;100772.19;;;25.88;72.90
15308;BME280;7755;52.208;6.964;2023-09-12T16:48:21;100769.50;;;25.79;72.92
15308;BME280;7755;52.208;6.964;2023-09-12T16:52:24;100789.06;;;25.70;72.70
15308;BME280;7755;52.208;6.964;2023-09-12T16:56:29;100793.41;;;25.59;75.47
15308;BME280;7755;52.208;6.964;2023-09-12T17:00:31;100800.53;;;25.48;76.59
15308;BME280;7755;52.208;6.964;2023-09-12T17:04:34;100804.06;;;25.36;77.94
15308;BME280;7755;52.208;6.964;2023-09-12T17:08:37;100817.53;;;25.25;78.92
15308;BME280;7755;52.208;6.964;2023-09-12T17:12:41;100820.38;;;25.17;80.63
15308;BME280;7755;52.208;6.964;2023-09-12T17:16:44;100812.91;;;25.09;81.85
15308;BME280;7755;52.208;6.964;2023-09-12T17:20:47;100810.78;;;24.97;83.14
15308;BME280;7755;52.208;6.964;2023-09-12T17:24:50;100808.72;;;24.85;84.84
15308;BME280;7755;52.208;6.964;2023-09-12T17:28:54;100817.91;;;24.77;86.38
15308;BME280;7755;52.208;6.964;2023-09-12T17:32:57;100812.88;;;24.70;87.29
15308;BME280;7755;52.208;6.964;2023-09-12T17:37:00;100814.22;;;24.64;88.27
15308;BME280;7755;52.208;6.964;2023-09-12T17:41:03;100818.31;;;24.58;88.51
15308;BME280;7755;52.208;6.964;2023-09-12T17:45:08;100811.63;;;24.50;88.14
15308;BME280;7755;52.208;6.964;2023-09-12T17:49:11;100812.97;;;24.44;88.86
15308;BME280;7755;52.208;6.964;2023-09-12T17:53:14;100812.34;;;24.39;90.42
15308;BME280;7755;52.208;6.964;2023-09-12T17:57:16;100813.94;;;24.31;91.97
15308;BME280;7755;52.208;6.964;2023-09-12T18:01:20;100809.72;;;24.25;93.04
15308;BME280;7755;52.208;6.964;2023-09-12T18:05:24;100809.72;;;24.16;94.50
15308;BME280;7755;52.208;6.964;2023-09-12T18:09:26;100807.97;;;24.12;95.06
15308;BME280;7755;52.208;6.964;2023-09-12T18:13:29;100813.16;;;24.05;95.25
15308;BME280;7755;52.208;6.964;2023-09-12T18:17:33;100815.97;;;23.96;95.56
15308;BME280;7755;52.208;6.964;2023-09-12T18:21:36;100814.00;;;23.88;97.01
15308;BME280;7755;52.208;6.964;2023-09-12T18:25:39;100831.84;;;23.78;98.12
15308;BME280;7755;52.208;6.964;2023-09-12T18:29:42;100833.75;;;23.69;99.19
15308;BME280;7755;52.208;6.964;2023-09-12T18:33:46;100834.59;;;23.61;100.00
15308;BME280;7755;52.208;6.964;2023-09-12T18:37:49;100835.03;;;23.54;100.00
15308;BME280;7755;52.208;6.964;2023-09-12T18:41:54;100843.50;;;23.49;100.00
15308;BME280;7755;52.208;6.964;2023-09-12T18:45:57;100837.00;;;23.45;100.00
15308;BME280;7755;52.208;6.964;2023-09-12T18:50:02;100838.63;;;23.37;100.00
15308;BME280;7755;52.208;6.964;2023-09-12T18:54:05;100835.66;;;23.34;100.00
15308;BME280;7755;52.208;6.964;2023-09-12T18:58:08;100840.19;;;23.30;100.00
15308;BME280;7755;52.208;6.964;2023-09-12T19:02:14;100843.63;;;23.27;100.00
15308;BME280;7755;52.208;6.964;2023-09-12T19:06:18;100843.78;;;23.22;100.00
15308;BME280;7755;52.208;6.964;2023-09-12T19:10:21;100845.88;;;23.16;100.00
15308;BME280;7755;52.208;6.964;2023-09-12T19:14:24;100844.91;;;23.12;100.00
15308;BME280;7755;52.208;6.964;2023-09-12T19:18:28;100853.69;;;23.05;100.00
15308;BME280;7755;52.208;6.964;2023-09-12T19:22:33;100851.38;;;22.99;100.00
15308;BME280;7755;52.208;6.964;2023-09-12T19:26:36;100848.75;;;22.94;100.00
15308;BME280;7755;52.208;6.964;2023-09-12T19:30:38;100853.31;;;22.90;100.00
15308;BME280;7755;52.208;6.964;2023-09-12T19:34:41;100843.75;;;22.82;100.00
15308;BME280;7755;52.208;6.964;2023-09-12T19:38:46;100840.81;;;22.78;100.00
15308;BME280;7755;52.208;6.964;2023-09-12T19:42:49;100841.44;;;22.75;100.00
15308;BME280;7755;52.208;6.964;2023-09-12T19:46:52;100833.13;;;22.75;100.00
15308;BME280;7755;52.208;6.964;2023-09-12T19:50:54;100829.25;;;22.76;100.00
15308;BME280;7755;52.208;6.964;2023-09-12T19:54:58;100826.78;;;22.75;100.00
15308;BME280;7755;52.208;6.964;2023-09-12T19:59:01;100822.69;;;22.72;100.00
15308;BME280;7755;52.208;6.964;2023-09-12T20:03:04;100818.06;;;22.59;100.00
15308;BME280;7755;52.208;6.964;2023-09-12T20:07:07;100818.81;;;22.42;100.00
15308;BME280;7755;52.208;6.964;2023-09-12T20:11:11;100812.69;;;22.31;100.00
15308;BME280;7755;52.208;6.964;2023-09-12T20:15:14;100802.50;;;22.18;100.00
15308;BME280;7755;52.208;6.964;2023-09-12T20:19:18;100792.69;;;22.12;100.00
15308;BME280;7755;52.208;6.964;2023-09-12T20:23:21;100795.06;;;22.05;100.00
15308;BME280;7755;52.208;6.964;2023-09-12T20:27:25;100791.09;;;21.97;100.00
15308;BME280;7755;52.208;6.964;2023-09-12T20:31:29;100787.16;;;21.90;100.00
15308;BME280;7755;52.208;6.964;2023-09-12T20:35:32;100791.34;;;21.87;100.00
15308;BME280;7755;52.208;6.964;2023-09-12T20:39:36;100793.94;;;21.84;100.00
15308;BME280;7755;52.208;6.964;2023-09-12T20:43:40;100781.53;;;21.81;100.00
15308;BME280;7755;52.208;6.964;2023-09-12T20:47:43;100792.31;;;21.83;100.00
15308;BME280;7755;52.208;6.964;2023-09-12T20:51:47;100807.28;;;21.82;100.00
15308;BME280;7755;52.208;6.964;2023-09-12T20:55:50;100821.22;;;21.76;100.00
15308;BME280;7755;52.208;6.964;2023-09-12T20:59:55;100824.13;;;21.71;100.00
15308;BME280;7755;52.208;6.964;2023-09-12T21:03:58;100835.28;;;21.66;100.00
15308;BME280;7755;52.208;6.964;2023-09-12T21:08:04;100819.66;;;21.62;100.00
15308;BME280;7755;52.208;6.964;2023-09-12T21:12:07;100820.25;;;21.59;100.00
15308;BME280;7755;52.208;6.964;2023-09-12T21:16:11;100825.78;;;21.59;100.00
15308;BME280;7755;52.208;6.964;2023-09-12T21:20:14;100824.16;;;21.58;100.00